Foxboro, Wisconsin
Current Conditions -  °F | °C
As of 12:35 PM on Thursday 27 Nov 2014 (Local Time) from KSUW Reporting Station
Clear Clear  
Wind Chill:   Ceiling: Unl
Heat Index:   Visibility: 10mi
Dew Point: -5°   Wind: 3mph
Humidity: 55%   Direction: 300°WNW
Pressure: 30.45"   Gusts: NA
Location:  46.5°N, 92.29°W
Report Text: KSUW 271835Z AUTO 30003KT 10SM CLR M13/M21 A3045 RMK AO2 T11341207
Loading
Personal Weather Stations






























Interactive Weather Map New forecast layout! Learn more

10-Day Weather Forecast

Advertisements
Track Severe Weather on mobile